sensor_id;sensor_type;location;lat;lon;timestamp;pressure;altitude;pressure_sealevel;temperature;humidity
46347;BME280;32057;47.830;19.046;2022-08-25T00:02:02;100277.91;;;19.42;100.00
46347;BME280;32057;47.830;19.046;2022-08-25T00:04:28;100281.34;;;19.46;100.00
46347;BME280;32057;47.830;19.046;2022-08-25T00:06:54;100274.25;;;19.49;100.00
46347;BME280;32057;47.830;19.046;2022-08-25T00:09:23;100286.50;;;19.55;100.00
46347;BME280;32057;47.830;19.046;2022-08-25T00:11:50;100268.91;;;19.54;100.00
46347;BME280;32057;47.830;19.046;2022-08-25T00:14:27;100272.44;;;19.53;100.00
46347;BME280;32057;47.830;19.046;2022-08-25T00:16:53;100265.41;;;19.52;100.00
46347;BME280;32057;47.830;19.046;2022-08-25T00:19:25;100266.28;;;19.53;100.00
46347;BME280;32057;47.830;19.046;2022-08-25T00:21:51;100260.09;;;19.55;100.00
46347;BME280;32057;47.830;19.046;2022-08-25T00:24:19;100260.94;;;19.57;100.00
46347;BME280;32057;47.830;19.046;2022-08-25T00:26:47;100254.75;;;19.58;100.00
46347;BME280;32057;47.830;19.046;2022-08-25T00:29:14;100259.16;;;19.59;100.00
46347;BME280;32057;47.830;19.046;2022-08-25T00:31:40;100254.75;;;19.58;100.00
46347;BME280;32057;47.830;19.046;2022-08-25T00:34:15;100253.06;;;19.54;100.00
46347;BME280;32057;47.830;19.046;2022-08-25T00:36:42;100250.41;;;19.56;100.00
46347;BME280;32057;47.830;19.046;2022-08-25T00:39:08;100244.19;;;19.58;100.00
46347;BME280;32057;47.830;19.046;2022-08-25T00:41:34;100245.94;;;19.59;100.00
46347;BME280;32057;47.830;19.046;2022-08-25T00:44:04;100239.75;;;19.60;100.00
46347;BME280;32057;47.830;19.046;2022-08-25T00:46:34;100237.22;;;19.54;100.00
46347;BME280;32057;47.830;19.046;2022-08-25T00:49:10;100241.63;;;19.55;100.00
46347;BME280;32057;47.830;19.046;2022-08-25T00:51:50;100238.97;;;19.55;100.00
46347;BME280;32057;47.830;19.046;2022-08-25T00:54:26;100234.53;;;19.57;100.00
46347;BME280;32057;47.830;19.046;2022-08-25T00:56:55;100238.91;;;19.58;100.00
46347;BME280;32057;47.830;19.046;2022-08-25T00:59:22;100253.88;;;19.59;100.00
46347;BME280;32057;47.830;19.046;2022-08-25T01:01:50;100253.88;;;19.59;100.00
46347;BME280;32057;47.830;19.046;2022-08-25T01:04:17;100256.44;;;19.62;100.00
46347;BME280;32057;47.830;19.046;2022-08-25T01:06:44;100256.50;;;19.59;100.00
46347;BME280;32057;47.830;19.046;2022-08-25T01:09:11;100248.59;;;19.59;100.00
46347;BME280;32057;47.830;19.046;2022-08-25T01:11:39;100246.81;;;19.60;100.00
46347;BME280;32057;47.830;19.046;2022-08-25T01:14:06;100247.75;;;19.57;100.00
46347;BME280;32057;47.830;19.046;2022-08-25T01:16:35;100246.94;;;19.52;100.00
46347;BME280;32057;47.830;19.046;2022-08-25T01:19:01;100244.38;;;19.47;100.00
46347;BME280;32057;47.830;19.046;2022-08-25T01:21:29;100245.28;;;19.45;100.00
46347;BME280;32057;47.830;19.046;2022-08-25T01:23:56;100240.94;;;19.44;100.00
46347;BME280;32057;47.830;19.046;2022-08-25T01:26:29;100241.78;;;19.46;100.00
46347;BME280;32057;47.830;19.046;2022-08-25T01:28:56;100238.22;;;19.47;100.00
46347;BME280;32057;47.830;19.046;2022-08-25T01:31:40;100240.00;;;19.46;100.00
46347;BME280;32057;47.830;19.046;2022-08-25T01:34:08;100240.00;;;19.45;100.00
46347;BME280;32057;47.830;19.046;2022-08-25T01:36:35;100230.47;;;19.38;100.00
46347;BME280;32057;47.830;19.046;2022-08-25T01:39:02;100228.78;;;19.34;100.00
46347;BME280;32057;47.830;19.046;2022-08-25T01:44:10;100235.94;;;19.27;100.00
46347;BME280;32057;47.830;19.046;2022-08-25T01:46:35;100244.84;;;19.21;100.00
46347;BME280;32057;47.830;19.046;2022-08-25T01:49:02;100244.03;;;19.16;100.00
46347;BME280;32057;47.830;19.046;2022-08-25T01:51:33;100242.31;;;19.15;100.00
46347;BME280;32057;47.830;19.046;2022-08-25T01:54:01;100241.38;;;19.16;100.00
46347;BME280;32057;47.830;19.046;2022-08-25T01:56:27;100243.16;;;19.17;100.00
46347;BME280;32057;47.830;19.046;2022-08-25T01:58:52;100236.09;;;19.19;100.00
46347;BME280;32057;47.830;19.046;2022-08-25T02:01:20;100244.88;;;19.18;100.00
46347;BME280;32057;47.830;19.046;2022-08-25T02:03:48;100234.41;;;19.15;100.00
46347;BME280;32057;47.830;19.046;2022-08-25T02:06:20;100226.53;;;19.10;100.00
46347;BME280;32057;47.830;19.046;2022-08-25T02:08:50;100235.34;;;19.09;100.00
46347;BME280;32057;47.830;19.046;2022-08-25T02:11:16;100224.81;;;19.08;100.00
46347;BME280;32057;47.830;19.046;2022-08-25T02:13:41;100221.34;;;19.06;100.00
46347;BME280;32057;47.830;19.046;2022-08-25T02:16:08;100228.31;;;19.10;100.00
46347;BME280;32057;47.830;19.046;2022-08-25T02:18:34;100231.78;;;19.12;100.00
46347;BME280;32057;47.830;19.046;2022-08-25T02:20:59;100232.66;;;19.11;100.00
46347;BME280;32057;47.830;19.046;2022-08-25T02:23:25;100238.78;;;19.13;100.00
46347;BME280;32057;47.830;19.046;2022-08-25T02:25:52;100230.00;;;19.13;100.00
46347;BME280;32057;47.830;19.046;2022-08-25T02:28:17;100234.44;;;19.12;100.00
46347;BME280;32057;47.830;19.046;2022-08-25T02:30:43;100242.31;;;19.14;100.00
46347;BME280;32057;47.830;19.046;2022-08-25T02:33:09;100248.56;;;19.08;100.00
46347;BME280;32057;47.830;19.046;2022-08-25T02:35:35;100245.94;;;19.06;100.00
46347;BME280;32057;47.830;19.046;2022-08-25T02:38:01;100242.53;;;19.01;100.00
46347;BME280;32057;47.830;19.046;2022-08-25T02:40:26;100232.00;;;18.98;100.00
46347;BME280;32057;47.830;19.046;2022-08-25T02:42:52;100231.06;;;19.01;100.00
46347;BME280;32057;47.830;19.046;2022-08-25T02:45:20;100230.22;;;19.00;100.00
46347;BME280;32057;47.830;19.046;2022-08-25T02:47:46;100226.69;;;19.01;100.00
46347;BME280;32057;47.830;19.046;2022-08-25T02:50:12;100228.44;;;19.01;100.00
46347;BME280;32057;47.830;19.046;2022-08-25T02:52:38;100236.41;;;18.98;100.00
46347;BME280;32057;47.830;19.046;2022-08-25T02:55:08;100242.63;;;18.95;100.00
46347;BME280;32057;47.830;19.046;2022-08-25T02:57:33;100233.81;;;18.95;100.00
46347;BME280;32057;47.830;19.046;2022-08-25T02:59:59;100234.72;;;18.94;100.00
46347;BME280;32057;47.830;19.046;2022-08-25T03:02:25;100243.50;;;18.93;100.00
46347;BME280;32057;47.830;19.046;2022-08-25T03:04:52;100240.97;;;18.86;100.00
46347;BME280;32057;47.830;19.046;2022-08-25T03:07:19;100235.69;;;18.86;100.00
46347;BME280;32057;47.830;19.046;2022-08-25T03:09:45;100231.28;;;18.88;100.00
46347;BME280;32057;47.830;19.046;2022-08-25T03:12:11;100228.72;;;18.84;100.00
46347;BME280;32057;47.830;19.046;2022-08-25T03:14:37;100238.41;;;18.83;100.00
46347;BME280;32057;47.830;19.046;2022-08-25T03:17:07;100234.91;;;18.81;100.00
46347;BME280;32057;47.830;19.046;2022-08-25T03:19:33;100234.84;;;18.84;100.00
46347;BME280;32057;47.830;19.046;2022-08-25T03:21:58;100232.28;;;18.77;100.00
46347;BME280;32057;47.830;19.046;2022-08-25T03:24:25;100230.56;;;18.76;100.00
46347;BME280;32057;47.830;19.046;2022-08-25T03:26:51;100235.81;;;18.77;100.00
46347;BME280;32057;47.830;19.046;2022-08-25T03:29:29;100240.22;;;18.80;100.00
46347;BME280;32057;47.830;19.046;2022-08-25T03:31:55;100233.16;;;18.80;100.00
46347;BME280;32057;47.830;19.046;2022-08-25T03:34:27;100241.09;;;18.77;100.00
46347;BME280;32057;47.830;19.046;2022-08-25T03:36:53;100241.97;;;18.76;100.00
46347;BME280;32057;47.830;19.046;2022-08-25T03:39:21;100235.84;;;18.76;100.00
46347;BME280;32057;47.830;19.046;2022-08-25T03:41:46;100236.81;;;18.70;100.00
46347;BME280;32057;47.830;19.046;2022-08-25T03:44:13;100246.50;;;18.68;100.00
46347;BME280;32057;47.830;19.046;2022-08-25T03:46:42;100237.75;;;18.66;100.00
46347;BME280;32057;47.830;19.046;2022-08-25T03:49:12;100243.00;;;18.67;100.00
46347;BME280;32057;47.830;19.046;2022-08-25T03:51:41;100232.47;;;18.64;100.00
46347;BME280;32057;47.830;19.046;2022-08-25T03:54:07;100238.66;;;18.63;100.00
46347;BME280;32057;47.830;19.046;2022-08-25T03:56:34;100234.25;;;18.65;100.00
46347;BME280;32057;47.830;19.046;2022-08-25T03:59:00;100235.13;;;18.64;100.00
46347;BME280;32057;47.830;19.046;2022-08-25T04:01:26;100232.47;;;18.66;100.00
46347;BME280;32057;47.830;19.046;2022-08-25T04:03:52;100236.97;;;18.59;100.00
46347;BME280;32057;47.830;19.046;2022-08-25T04:06:18;100237.00;;;18.55;100.00
46347;BME280;32057;47.830;19.046;2022-08-25T04:08:44;100238.78;;;18.56;100.00
46347;BME280;32057;47.830;19.046;2022-08-25T04:11:16;100242.28;;;18.55;100.00
46347;BME280;32057;47.830;19.046;2022-08-25T04:13:42;100243.13;;;18.57;100.00
46347;BME280;32057;47.830;19.046;2022-08-25T04:16:19;100236.06;;;18.59;100.00
46347;BME280;32057;47.830;19.046;2022-08-25T04:18:45;100236.97;;;18.58;100.00
46347;BME280;32057;47.830;19.046;2022-08-25T04:21:12;100240.56;;;18.52;100.00
46347;BME280;32057;47.830;19.046;2022-08-25T04:23:40;100240.59;;;18.50;100.00
46347;BME280;32057;47.830;19.046;2022-08-25T04:26:14;100244.91;;;18.56;100.00
46347;BME280;32057;47.830;19.046;2022-08-25T04:28:41;100243.13;;;18.55;100.00
46347;BME280;32057;47.830;19.046;2022-08-25T04:31:08;100241.44;;;18.52;100.00
46347;BME280;32057;47.830;19.046;2022-08-25T04:33:35;100242.28;;;18.55;100.00
46347;BME280;32057;47.830;19.046;2022-08-25T04:36:02;100240.47;;;18.58;100.00
46347;BME280;32057;47.830;19.046;2022-08-25T04:38:27;100241.31;;;18.62;100.00
46347;BME280;32057;47.830;19.046;2022-08-25T04:40:57;100242.94;;;18.69;100.00
46347;BME280;32057;47.830;19.046;2022-08-25T04:43:23;100245.56;;;18.72;100.00
46347;BME280;32057;47.830;19.046;2022-08-25T04:45:48;100236.72;;;18.76;100.00
46347;BME280;32057;47.830;19.046;2022-08-25T04:48:14;100229.56;;;18.87;100.00
46347;BME280;32057;47.830;19.046;2022-08-25T04:50:39;100211.75;;;19.00;100.00
46347;BME280;32057;47.830;19.046;2022-08-25T04:53:05;100220.91;;;19.32;100.00
46347;BME280;32057;47.830;19.046;2022-08-25T04:55:30;100222.09;;;20.10;100.00
46347;BME280;32057;47.830;19.046;2022-08-25T04:57:56;100222.41;;;20.78;100.00
46347;BME280;32057;47.830;19.046;2022-08-25T05:00:21;100212.31;;;20.55;100.00
46347;BME280;32057;47.830;19.046;2022-08-25T05:02:47;100217.09;;;20.79;100.00
46347;BME280;32057;47.830;19.046;2022-08-25T05:05:12;100220.06;;;21.03;100.00
46347;BME280;32057;47.830;19.046;2022-08-25T05:07:38;100222.09;;;20.92;100.00
46347;BME280;32057;47.830;19.046;2022-08-25T05:10:03;100222.25;;;20.85;100.00
46347;BME280;32057;47.830;19.046;2022-08-25T05:12:29;100218.59;;;20.91;100.00
46347;BME280;32057;47.830;19.046;2022-08-25T05:14:55;100213.91;;;20.65;100.00
46347;BME280;32057;47.830;19.046;2022-08-25T05:17:40;100222.84;;;20.58;100.00
46347;BME280;32057;47.830;19.046;2022-08-25T05:20:06;100215.88;;;20.54;100.00
46347;BME280;32057;47.830;19.046;2022-08-25T05:22:32;100219.00;;;20.30;100.00
46347;BME280;32057;47.830;19.046;2022-08-25T05:24:57;100217.22;;;20.33;100.00
46347;BME280;32057;47.830;19.046;2022-08-25T05:27:23;100215.94;;;20.50;100.00
46347;BME280;32057;47.830;19.046;2022-08-25T05:29:48;100217.31;;;20.68;100.00
46347;BME280;32057;47.830;19.046;2022-08-25T05:32:13;100218.75;;;20.83;100.00
46347;BME280;32057;47.830;19.046;2022-08-25T05:34:39;100215.81;;;20.96;100.00
46347;BME280;32057;47.830;19.046;2022-08-25T05:37:04;100227.00;;;21.07;100.00
46347;BME280;32057;47.830;19.046;2022-08-25T05:39:30;100221.28;;;20.88;100.00
46347;BME280;32057;47.830;19.046;2022-08-25T05:41:57;100221.78;;;21.04;100.00
46347;BME280;32057;47.830;19.046;2022-08-25T05:44:23;100218.38;;;20.99;100.00
46347;BME280;32057;47.830;19.046;2022-08-25T05:46:48;100216.38;;;21.08;100.00
46347;BME280;32057;47.830;19.046;2022-08-25T05:49:15;100218.31;;;21.02;100.00
46347;BME280;32057;47.830;19.046;2022-08-25T05:51:40;100215.59;;;21.05;100.00
46347;BME280;32057;47.830;19.046;2022-08-25T05:54:06;100212.88;;;21.08;100.00
46347;BME280;32057;47.830;19.046;2022-08-25T05:56:31;100215.00;;;21.28;100.00
46347;BME280;32057;47.830;19.046;2022-08-25T05:58:57;100213.78;;;21.43;100.00
46347;BME280;32057;47.830;19.046;2022-08-25T06:01:25;100218.75;;;21.55;100.00
46347;BME280;32057;47.830;19.046;2022-08-25T06:04:09;100213.19;;;21.64;100.00
46347;BME280;32057;47.830;19.046;2022-08-25T06:06:35;100217.50;;;21.68;100.00
46347;BME280;32057;47.830;19.046;2022-08-25T06:09:01;100221.91;;;21.70;100.00
46347;BME280;32057;47.830;19.046;2022-08-25T06:11:27;100219.16;;;21.73;100.00
46347;BME280;32057;47.830;19.046;2022-08-25T06:13:52;100222.13;;;21.93;100.00
46347;BME280;32057;47.830;19.046;2022-08-25T06:16:17;100225.28;;;22.06;100.00
46347;BME280;32057;47.830;19.046;2022-08-25T06:18:43;100229.28;;;22.21;100.00
46347;BME280;32057;47.830;19.046;2022-08-25T06:21:13;100229.78;;;22.35;100.00
46347;BME280;32057;47.830;19.046;2022-08-25T06:23:39;100221.88;;;22.34;100.00
46347;BME280;32057;47.830;19.046;2022-08-25T06:26:05;100224.25;;;22.12;100.00
46347;BME280;32057;47.830;19.046;2022-08-25T06:28:31;100220.94;;;22.03;100.00
46347;BME280;32057;47.830;19.046;2022-08-25T06:30:58;100231.78;;;22.27;100.00
46347;BME280;32057;47.830;19.046;2022-08-25T06:33:24;100222.13;;;22.54;100.00
46347;BME280;32057;47.830;19.046;2022-08-25T06:35:52;100222.22;;;22.79;100.00
46347;BME280;32057;47.830;19.046;2022-08-25T06:38:19;100219.78;;;23.00;100.00
46347;BME280;32057;47.830;19.046;2022-08-25T06:40:46;100228.31;;;23.11;100.00
46347;BME280;32057;47.830;19.046;2022-08-25T06:43:12;100227.91;;;23.23;100.00
46347;BME280;32057;47.830;19.046;2022-08-25T06:45:37;100226.56;;;23.37;100.00
46347;BME280;32057;47.830;19.046;2022-08-25T06:48:03;100232.66;;;22.85;100.00
46347;BME280;32057;47.830;19.046;2022-08-25T06:50:28;100223.00;;;23.11;100.00
46347;BME280;32057;47.830;19.046;2022-08-25T06:52:54;100229.91;;;23.42;100.00
46347;BME280;32057;47.830;19.046;2022-08-25T06:55:19;100232.09;;;23.56;100.00
46347;BME280;32057;47.830;19.046;2022-08-25T06:57:45;100237.06;;;23.66;100.00
46347;BME280;32057;47.830;19.046;2022-08-25T07:00:11;100236.69;;;23.77;100.00
46347;BME280;32057;47.830;19.046;2022-08-25T07:02:36;100236.84;;;23.98;100.00
46347;BME280;32057;47.830;19.046;2022-08-25T07:05:03;100238.97;;;24.12;100.00
46347;BME280;32057;47.830;19.046;2022-08-25T07:07:29;100240.44;;;24.20;100.00
46347;BME280;32057;47.830;19.046;2022-08-25T07:09:54;100237.47;;;24.28;100.00
46347;BME280;32057;47.830;19.046;2022-08-25T07:12:20;100236.19;;;24.38;100.00
46347;BME280;32057;47.830;19.046;2022-08-25T07:14:46;100232.38;;;24.45;100.00
46347;BME280;32057;47.830;19.046;2022-08-25T07:17:11;100237.94;;;24.39;100.00
46347;BME280;32057;47.830;19.046;2022-08-25T07:19:37;100229.16;;;24.61;99.66
46347;BME280;32057;47.830;19.046;2022-08-25T07:22:02;100229.53;;;24.74;96.36
46347;BME280;32057;47.830;19.046;2022-08-25T07:24:28;100222.31;;;24.77;98.23
46347;BME280;32057;47.830;19.046;2022-08-25T07:26:53;100223.97;;;24.58;100.00
46347;BME280;32057;47.830;19.046;2022-08-25T07:29:21;100230.53;;;24.24;100.00
46347;BME280;32057;47.830;19.046;2022-08-25T07:31:47;100229.28;;;24.58;100.00
46347;BME280;32057;47.830;19.046;2022-08-25T07:34:13;100228.63;;;24.75;100.00
46347;BME280;32057;47.830;19.046;2022-08-25T07:37:05;100232.09;;;24.77;100.00
46347;BME280;32057;47.830;19.046;2022-08-25T07:39:31;100232.34;;;24.71;100.00
46347;BME280;32057;47.830;19.046;2022-08-25T07:41:58;100226.75;;;24.99;100.00
46347;BME280;32057;47.830;19.046;2022-08-25T07:44:24;100231.31;;;25.17;98.37
46347;BME280;32057;47.830;19.046;2022-08-25T07:46:50;100237.28;;;25.24;96.72
46347;BME280;32057;47.830;19.046;2022-08-25T07:49:17;100239.69;;;25.30;94.62
46347;BME280;32057;47.830;19.046;2022-08-25T07:51:44;100231.84;;;25.05;96.45
46347;BME280;32057;47.830;19.046;2022-08-25T07:54:10;100229.28;;;25.02;97.55
46347;BME280;32057;47.830;19.046;2022-08-25T07:56:35;100227.25;;;25.09;98.38
46347;BME280;32057;47.830;19.046;2022-08-25T07:59:01;100227.00;;;25.37;96.75
46347;BME280;32057;47.830;19.046;2022-08-25T08:01:26;100234.97;;;25.57;96.14
46347;BME280;32057;47.830;19.046;2022-08-25T08:03:52;100227.25;;;25.72;94.94
46347;BME280;32057;47.830;19.046;2022-08-25T08:06:21;100228.94;;;25.74;91.48
46347;BME280;32057;47.830;19.046;2022-08-25T08:08:48;100230.97;;;25.27;93.93
46347;BME280;32057;47.830;19.046;2022-08-25T08:11:23;100229.91;;;25.72;97.17
46347;BME280;32057;47.830;19.046;2022-08-25T08:13:51;100230.16;;;25.86;91.53
46347;BME280;32057;47.830;19.046;2022-08-25T08:16:18;100232.97;;;26.03;91.81
46347;BME280;32057;47.830;19.046;2022-08-25T08:18:45;100231.81;;;25.90;86.24
46347;BME280;32057;47.830;19.046;2022-08-25T08:21:20;100234.25;;;25.95;90.25
46347;BME280;32057;47.830;19.046;2022-08-25T08:23:47;100235.06;;;25.76;86.46
46347;BME280;32057;47.830;19.046;2022-08-25T08:26:13;100236.78;;;25.57;88.41
46347;BME280;32057;47.830;19.046;2022-08-25T08:28:38;100224.72;;;25.69;87.51
46347;BME280;32057;47.830;19.046;2022-08-25T08:31:04;100220.31;;;25.47;89.79
46347;BME280;32057;47.830;19.046;2022-08-25T08:33:29;100220.38;;;25.46;90.35
46347;BME280;32057;47.830;19.046;2022-08-25T08:36:01;100225.97;;;25.39;88.84
46347;BME280;32057;47.830;19.046;2022-08-25T08:38:26;100232.84;;;25.66;87.09
46347;BME280;32057;47.830;19.046;2022-08-25T08:47:36;100216.56;;;26.13;86.94
46347;BME280;32057;47.830;19.046;2022-08-25T08:55:36;100221.59;;;26.57;78.08
46347;BME280;32057;47.830;19.046;2022-08-25T08:58:14;100211.28;;;26.87;78.14
46347;BME280;32057;47.830;19.046;2022-08-25T09:00:49;100214.84;;;27.22;72.02
46347;BME280;32057;47.830;19.046;2022-08-25T09:03:37;100211.72;;;27.32;71.29
46347;BME280;32057;47.830;19.046;2022-08-25T09:06:16;100211.34;;;26.86;70.80
46347;BME280;32057;47.830;19.046;2022-08-25T09:08:42;100213.38;;;26.80;73.29
46347;BME280;32057;47.830;19.046;2022-08-25T09:22:35;100188.19;;;27.91;60.98
46347;BME280;32057;47.830;19.046;2022-08-25T09:30:23;100182.72;;;28.26;61.15
46347;BME280;32057;47.830;19.046;2022-08-25T09:32:52;100178.81;;;28.31;61.37
46347;BME280;32057;47.830;19.046;2022-08-25T09:35:22;100181.44;;;28.33;61.90
46347;BME280;32057;47.830;19.046;2022-08-25T09:40:26;100173.91;;;28.39;63.82
46347;BME280;32057;47.830;19.046;2022-08-25T09:42:55;100161.06;;;28.30;63.60
46347;BME280;32057;47.830;19.046;2022-08-25T09:45:40;100157.25;;;28.34;65.40
46347;BME280;32057;47.830;19.046;2022-08-25T09:48:29;100156.56;;;28.31;67.08
46347;BME280;32057;47.830;19.046;2022-08-25T09:51:00;100154.66;;;28.49;65.35
46347;BME280;32057;47.830;19.046;2022-08-25T09:53:27;100150.72;;;28.72;69.15
46347;BME280;32057;47.830;19.046;2022-08-25T09:56:04;100151.38;;;28.75;64.44
46347;BME280;32057;47.830;19.046;2022-08-25T09:58:32;100146.34;;;28.85;62.41
46347;BME280;32057;47.830;19.046;2022-08-25T10:03:27;100148.03;;;29.02;60.53
46347;BME280;32057;47.830;19.046;2022-08-25T10:06:03;100144.66;;;28.68;62.47
46347;BME280;32057;47.830;19.046;2022-08-25T10:08:40;100142.69;;;29.02;59.87
46347;BME280;32057;47.830;19.046;2022-08-25T10:11:36;100143.25;;;29.07;58.83
46347;BME280;32057;47.830;19.046;2022-08-25T10:16:48;100128.28;;;29.19;54.96
46347;BME280;32057;47.830;19.046;2022-08-25T10:22:02;100128.31;;;29.03;57.55
46347;BME280;32057;47.830;19.046;2022-08-25T10:24:28;100123.31;;;28.97;57.85
46347;BME280;32057;47.830;19.046;2022-08-25T10:26:59;100128.22;;;29.35;57.15
46347;BME280;32057;47.830;19.046;2022-08-25T10:34:53;100116.56;;;29.65;55.69
46347;BME280;32057;47.830;19.046;2022-08-25T10:40:24;100111.56;;;29.58;54.96
46347;BME280;32057;47.830;19.046;2022-08-25T10:45:24;100104.31;;;29.61;54.46
46347;BME280;32057;47.830;19.046;2022-08-25T10:53:46;100098.38;;;29.70;53.97
46347;BME280;32057;47.830;19.046;2022-08-25T10:56:19;100090.59;;;29.51;57.02
46347;BME280;32057;47.830;19.046;2022-08-25T11:02:07;100084.97;;;29.70;56.42
46347;BME280;32057;47.830;19.046;2022-08-25T11:04:45;100087.03;;;29.93;55.02
46347;BME280;32057;47.830;19.046;2022-08-25T11:09:47;100073.66;;;30.21;52.40
46347;BME280;32057;47.830;19.046;2022-08-25T11:12:36;100071.78;;;30.08;52.71
46347;BME280;32057;47.830;19.046;2022-08-25T11:15:34;100067.28;;;30.09;53.28
46347;BME280;32057;47.830;19.046;2022-08-25T11:18:04;100070.94;;;29.93;52.93
46347;BME280;32057;47.830;19.046;2022-08-25T11:23:24;100059.47;;;30.18;52.17
46347;BME280;32057;47.830;19.046;2022-08-25T11:25:58;100051.75;;;30.14;52.36
46347;BME280;32057;47.830;19.046;2022-08-25T11:31:13;100051.75;;;30.14;55.00
46347;BME280;32057;47.830;19.046;2022-08-25T11:33:39;100045.75;;;30.23;55.14
46347;BME280;32057;47.830;19.046;2022-08-25T11:41:36;100027.72;;;30.25;55.16
46347;BME280;32057;47.830;19.046;2022-08-25T11:55:13;100015.06;;;30.42;52.01
46347;BME280;32057;47.830;19.046;2022-08-25T11:57:41;100012.06;;;30.59;53.33
46347;BME280;32057;47.830;19.046;2022-08-25T12:13:49;100008.09;;;30.65;50.51
46347;BME280;32057;47.830;19.046;2022-08-25T12:21:49;99997.84;;;30.97;51.25
46347;BME280;32057;47.830;19.046;2022-08-25T12:24:19;100002.16;;;31.00;48.79
46347;BME280;32057;47.830;19.046;2022-08-25T12:26:59;100000.19;;;30.89;47.09
46347;BME280;32057;47.830;19.046;2022-08-25T12:29:44;99996.72;;;30.74;48.83
46347;BME280;32057;47.830;19.046;2022-08-25T12:32:21;99995.84;;;30.73;47.95
46347;BME280;32057;47.830;19.046;2022-08-25T12:38:13;99990.69;;;30.83;49.44
46347;BME280;32057;47.830;19.046;2022-08-25T12:45:40;99989.13;;;31.06;48.99
46347;BME280;32057;47.830;19.046;2022-08-25T12:51:01;99984.06;;;31.14;48.76
46347;BME280;32057;47.830;19.046;2022-08-25T12:53:42;99983.84;;;31.05;49.24
46347;BME280;32057;47.830;19.046;2022-08-25T13:10:17;99967.81;;;31.29;49.48
46347;BME280;32057;47.830;19.046;2022-08-25T13:13:30;99970.72;;;31.26;47.16
46347;BME280;32057;47.830;19.046;2022-08-25T13:16:06;99972.66;;;31.24;49.94
46347;BME280;32057;47.830;19.046;2022-08-25T13:18:39;99967.69;;;31.30;46.65
46347;BME280;32057;47.830;19.046;2022-08-25T13:21:17;99968.09;;;31.37;47.15
46347;BME280;32057;47.830;19.046;2022-08-25T13:23:48;99967.78;;;31.42;46.85
46347;BME280;32057;47.830;19.046;2022-08-25T13:26:20;99963.72;;;31.36;46.94
46347;BME280;32057;47.830;19.046;2022-08-25T13:29:00;99962.53;;;31.40;46.86
46347;BME280;32057;47.830;19.046;2022-08-25T13:31:27;99960.41;;;31.20;49.18
46347;BME280;32057;47.830;19.046;2022-08-25T13:34:00;99962.97;;;31.34;47.93
46347;BME280;32057;47.830;19.046;2022-08-25T13:36:33;99965.88;;;31.31;48.38
46347;BME280;32057;47.830;19.046;2022-08-25T13:39:20;99968.16;;;31.24;48.85
46347;BME280;32057;47.830;19.046;2022-08-25T13:41:49;99958.47;;;31.22;49.97
46347;BME280;32057;47.830;19.046;2022-08-25T13:44:16;99960.41;;;31.07;49.07
46347;BME280;32057;47.830;19.046;2022-08-25T13:46:43;99955.03;;;31.07;51.53
46347;BME280;32057;47.830;19.046;2022-08-25T13:49:10;99954.63;;;31.00;50.08
46347;BME280;32057;47.830;19.046;2022-08-25T13:51:37;99961.09;;;30.98;49.84
46347;BME280;32057;47.830;19.046;2022-08-25T13:54:06;99961.03;;;30.85;48.50
46347;BME280;32057;47.830;19.046;2022-08-25T13:56:34;99953.97;;;30.84;49.03
46347;BME280;32057;47.830;19.046;2022-08-25T13:59:02;99948.19;;;30.90;50.18
46347;BME280;32057;47.830;19.046;2022-08-25T14:01:30;99950.75;;;30.91;47.35
46347;BME280;32057;47.830;19.046;2022-08-25T14:07:07;99954.19;;;30.93;50.50
46347;BME280;32057;47.830;19.046;2022-08-25T14:10:04;99954.72;;;30.86;47.32
46347;BME280;32057;47.830;19.046;2022-08-25T14:15:25;99949.34;;;30.86;48.23
46347;BME280;32057;47.830;19.046;2022-08-25T14:20:28;99945.56;;;30.75;48.16
46347;BME280;32057;47.830;19.046;2022-08-25T14:23:05;99945.13;;;30.69;48.19
46347;BME280;32057;47.830;19.046;2022-08-25T14:25:30;99939.88;;;30.67;49.27
46347;BME280;32057;47.830;19.046;2022-08-25T14:28:01;99945.00;;;30.57;47.51
46347;BME280;32057;47.830;19.046;2022-08-25T14:30:29;99944.03;;;30.33;49.61
46347;BME280;32057;47.830;19.046;2022-08-25T14:32:55;99932.78;;;30.13;48.94
46347;BME280;32057;47.830;19.046;2022-08-25T14:35:21;99928.72;;;30.08;50.14
46347;BME280;32057;47.830;19.046;2022-08-25T14:37:47;99929.81;;;30.18;51.76
46347;BME280;32057;47.830;19.046;2022-08-25T14:40:13;99925.91;;;30.36;51.48
46347;BME280;32057;47.830;19.046;2022-08-25T14:42:41;99932.47;;;30.58;48.42
46347;BME280;32057;47.830;19.046;2022-08-25T14:45:07;99931.50;;;30.59;50.53
46347;BME280;32057;47.830;19.046;2022-08-25T14:47:33;99932.38;;;30.60;49.66
46347;BME280;32057;47.830;19.046;2022-08-25T14:49:59;99925.28;;;30.58;50.91
46347;BME280;32057;47.830;19.046;2022-08-25T14:52:27;99929.66;;;30.47;47.78
46347;BME280;32057;47.830;19.046;2022-08-25T14:54:53;99927.97;;;30.46;48.39
46347;BME280;32057;47.830;19.046;2022-08-25T14:57:18;99932.78;;;30.41;48.67
46347;BME280;32057;47.830;19.046;2022-08-25T14:59:44;99931.06;;;30.40;47.48
46347;BME280;32057;47.830;19.046;2022-08-25T15:02:12;99924.81;;;30.39;49.94
46347;BME280;32057;47.830;19.046;2022-08-25T15:04:42;99926.47;;;30.42;50.60